createdAt,value
2023-05-04T05:03:25.333Z,25.00
2023-05-04T05:04:25.379Z,25.00
2023-05-04T05:05:25.269Z,25.00
2023-05-04T05:06:26.249Z,25.00
2023-05-04T05:07:25.282Z,25.00
2023-05-04T05:08:25.241Z,25.00
2023-05-04T05:09:25.225Z,0.00
2023-05-04T05:10:25.260Z,0.00
2023-05-04T05:11:25.961Z,0.00
2023-05-04T05:12:25.911Z,0.00
2023-05-04T05:13:26.916Z,0.00
2023-05-04T05:14:26.556Z,0.00
2023-05-04T05:15:27.715Z,0.00
2023-05-04T05:16:27.349Z,0.00
2023-05-04T05:17:27.017Z,0.00
2023-05-04T05:18:29.493Z,0.00
2023-05-04T05:19:26.743Z,0.00
2023-05-04T05:20:26.658Z,0.00
2023-05-04T05:21:27.533Z,0.00
2023-05-04T05:22:27.469Z,0.00
2023-05-04T05:23:26.961Z,0.00
2023-05-04T05:24:27.839Z,0.00
2023-05-04T05:25:26.709Z,0.00
2023-05-04T05:26:25.732Z,0.00
2023-05-04T05:27:26.961Z,0.00
2023-05-04T05:28:26.828Z,0.00
2023-05-04T05:29:28.394Z,0.00
2023-05-04T05:30:25.948Z,0.00
2023-05-04T05:31:27.026Z,0.00
2023-05-04T05:32:27.554Z,0.00
2023-05-04T05:33:26.854Z,0.00
2023-05-04T05:34:26.425Z,0.00
2023-05-04T05:35:27.026Z,0.00
2023-05-04T05:36:27.059Z,0.00
2023-05-04T05:37:26.178Z,0.00
2023-05-04T05:38:26.340Z,0.00
2023-05-04T05:39:25.906Z,0.00
2023-05-04T05:40:25.807Z,0.00
2023-05-04T05:41:25.920Z,0.00
2023-05-04T05:43:45.117Z,25.00
2023-05-04T05:44:45.028Z,25.00
2023-05-04T05:45:44.860Z,25.00
2023-05-04T05:46:45.984Z,25.00
2023-05-04T05:47:46.020Z,25.00
2023-05-04T05:48:45.882Z,25.00
2023-05-04T05:49:46.432Z,28.45
2023-05-04T05:50:44.862Z,25.00
2023-05-04T05:51:45.853Z,25.00
2023-05-04T05:52:44.835Z,24.79
2023-05-04T05:53:45.863Z,55.00
2023-05-04T05:54:44.796Z,64.89
2023-05-04T05:55:45.782Z,104.36
2023-05-04T05:56:44.801Z,99.99
2023-05-04T05:57:44.779Z,64.67
2023-05-04T05:58:45.813Z,51.90
2023-05-04T05:59:44.807Z,54.05
2023-05-04T06:00:45.771Z,43.52
2023-05-04T06:01:45.934Z,37.44
2023-05-04T06:02:44.863Z,50.96
2023-05-04T06:03:44.953Z,25.00
2023-05-04T06:04:44.787Z,24.74
2023-05-04T06:05:45.773Z,25.00
2023-05-04T06:06:46.148Z,29.06
2023-05-04T06:07:46.680Z,34.54
2023-05-04T06:08:46.007Z,26.44
2023-05-04T06:09:44.870Z,25.09
2023-05-04T06:10:44.921Z,25.67
2023-05-04T06:11:45.080Z,28.01
2023-05-04T06:12:44.977Z,27.78
2023-05-04T06:13:46.022Z,25.00
2023-05-04T06:14:45.059Z,17.10
2023-05-04T06:15:45.053Z,26.43
2023-05-04T06:16:46.241Z,28.70
2023-05-04T06:17:46.566Z,30.23
2023-05-04T06:18:46.157Z,138.75
2023-05-04T06:19:47.579Z,256.69
2023-05-04T06:20:46.709Z,255.36
2023-05-04T06:23:04.343Z,25.00
2023-05-04T06:29:21.222Z,25.00
2023-05-04T06:30:21.248Z,25.00
2023-05-04T06:31:21.336Z,25.00
2023-05-04T06:32:22.275Z,25.00
2023-05-04T06:33:22.213Z,25.00
2023-05-04T06:35:41.338Z,25.00
2023-05-04T06:38:01.124Z,25.00
2023-05-04T06:40:35.727Z,25.00
2023-05-04T06:41:35.728Z,25.00
2023-05-04T06:42:36.666Z,25.00
2023-05-04T06:43:37.058Z,25.00
2023-05-04T06:44:35.945Z,25.00
2023-05-04T06:45:39.650Z,25.00
2023-05-04T06:46:48.758Z,0.00
2023-05-04T06:48:55.864Z,25.00
2023-05-04T06:49:57.264Z,25.00
2023-05-04T06:57:31.454Z,25.00
2023-05-04T07:00:56.674Z,25.00
2023-05-04T07:03:34.926Z,25.00
2023-05-04T07:05:49.687Z,25.00
2023-05-04T07:06:50.721Z,25.00
2023-05-04T07:07:51.446Z,25.00
2023-05-04T07:10:10.195Z,25.00
2023-05-04T07:12:47.408Z,25.00
2023-05-04T07:16:28.818Z,25.00
2023-05-04T07:18:45.589Z,25.00
2023-05-04T07:19:46.003Z,25.00
2023-05-04T07:20:47.185Z,25.00
2023-05-04T07:21:46.205Z,25.00
2023-05-04T07:24:05.135Z,25.00
2023-05-04T07:26:27.420Z,25.00
2023-05-04T07:27:24.599Z,25.00
2023-05-04T07:28:25.358Z,25.00
2023-05-04T07:29:29.573Z,25.00
2023-05-04T07:30:24.916Z,25.00
2023-05-04T07:31:31.012Z,25.00
2023-05-04T07:33:46.095Z,25.00
2023-05-04T07:34:48.789Z,25.00
2023-05-04T07:35:46.031Z,25.00
2023-05-04T07:36:44.994Z,25.00
2023-05-04T07:37:45.473Z,25.00
2023-05-04T07:47:51.867Z,25.00
2023-05-04T07:51:11.763Z,25.00
2023-05-04T07:52:02.969Z,25.00
2023-05-04T07:53:03.780Z,25.00
2023-05-04T07:54:02.751Z,25.00
2023-05-04T07:55:02.767Z,25.00
2023-05-04T07:56:01.981Z,25.00
2023-05-04T07:57:02.746Z,25.00
2023-05-04T07:58:01.786Z,10.05
2023-05-04T07:59:02.698Z,34.51
2023-05-04T08:00:03.031Z,16.60
2023-05-04T08:01:02.735Z,37.01
2023-05-04T08:02:01.787Z,52.34
2023-05-04T08:03:02.911Z,25.16
2023-05-04T08:05:20.784Z,25.00
2023-05-04T08:07:41.377Z,25.00
2023-05-04T08:08:41.347Z,25.00
2023-05-04T08:09:40.358Z,25.00
2023-05-04T08:10:41.317Z,25.00
2023-05-04T08:11:41.382Z,25.00
2023-05-04T08:12:41.378Z,14.37
2023-05-04T08:13:41.297Z,26.88
2023-05-04T08:15:59.350Z,25.00
2023-05-04T08:18:22.685Z,25.00
2023-05-04T08:19:19.535Z,25.00
2023-05-04T08:20:18.833Z,25.00
2023-05-04T08:21:18.508Z,25.00
2023-05-04T08:22:19.526Z,25.00
2023-05-04T08:23:19.487Z,25.00
2023-05-04T08:25:38.464Z,25.00
2023-05-04T08:26:47.308Z,25.00
2023-05-04T08:27:39.014Z,25.00
2023-05-04T08:28:38.990Z,25.00
2023-05-04T08:29:38.075Z,25.00
2023-05-04T08:30:39.025Z,25.00
2023-05-04T08:34:16.813Z,25.00
2023-05-04T08:35:17.701Z,25.00
2023-05-04T08:36:17.937Z,25.00
2023-05-04T08:37:16.590Z,25.00
2023-05-04T08:38:16.603Z,25.00
2023-05-04T08:39:17.601Z,16.56
2023-05-04T08:40:17.576Z,35.34
2023-05-04T08:41:16.565Z,57.61
2023-05-04T08:42:17.522Z,55.77
2023-05-04T08:44:36.775Z,25.00
2023-05-04T08:46:57.250Z,25.00
2023-05-04T08:48:06.350Z,25.00
2023-05-04T08:50:39.852Z,25.00
2023-05-04T08:51:52.077Z,25.00
2023-05-04T08:52:39.589Z,25.00
2023-05-04T08:53:39.565Z,25.00
2023-05-04T08:54:39.690Z,25.00
2023-05-04T08:55:39.565Z,25.00
2023-05-04T08:56:39.895Z,25.00
2023-05-04T08:57:39.548Z,25.00
2023-05-04T08:58:38.555Z,35.48
2023-05-04T08:59:39.522Z,37.40
2023-05-04T09:00:39.601Z,69.52
2023-05-04T09:01:39.543Z,50.61
2023-05-04T09:02:38.512Z,31.18
2023-05-04T09:03:39.548Z,0.00
2023-05-04T09:04:39.494Z,52.62
2023-05-04T09:05:38.500Z,61.61
2023-05-04T09:06:39.540Z,89.14
2023-05-04T09:07:39.450Z,55.45
2023-05-04T09:08:38.465Z,25.80
2023-05-04T09:09:38.540Z,39.08
2023-05-04T09:10:39.571Z,59.55
2023-05-04T09:11:38.450Z,0.00
2023-05-04T09:12:39.485Z,25.30
2023-05-04T09:13:39.483Z,17.51
2023-05-04T09:14:40.377Z,77.95
2023-05-04T09:15:39.434Z,38.89
2023-05-04T09:16:42.978Z,13.49
2023-05-04T09:17:50.972Z,0.00
2023-05-04T09:18:39.428Z,0.00
2023-05-04T09:20:57.704Z,25.00
2023-05-04T09:21:58.564Z,25.00
2023-05-04T09:22:58.469Z,25.00
2023-05-04T09:23:58.441Z,25.00
2023-05-04T09:24:58.386Z,25.00
2023-05-04T09:25:58.588Z,82.69
2023-05-04T09:26:57.482Z,62.65
2023-05-04T09:27:58.610Z,79.97
2023-05-04T09:28:57.374Z,27.64
2023-05-04T09:29:58.385Z,25.13
2023-05-04T09:30:57.349Z,24.33
2023-05-04T09:31:58.341Z,9.27
2023-05-04T09:32:57.464Z,24.50
2023-05-04T09:33:58.320Z,43.31
2023-05-04T09:34:57.389Z,83.27
2023-05-04T09:35:58.366Z,33.05
2023-05-04T09:36:58.323Z,12.90
2023-05-04T09:37:58.355Z,59.33
2023-05-04T09:38:58.281Z,63.48
2023-05-04T09:39:57.334Z,25.00
2023-05-04T09:40:57.355Z,77.03
2023-05-04T09:41:58.375Z,89.38
2023-05-04T09:42:57.357Z,60.59
2023-05-04T09:43:58.373Z,54.23
2023-05-04T09:44:58.407Z,27.25
2023-05-04T09:45:57.555Z,100.24
2023-05-04T09:46:58.526Z,71.99
2023-05-04T09:47:58.569Z,110.12
2023-05-04T09:48:58.508Z,14.38
2023-05-04T09:49:58.547Z,24.70
2023-05-04T09:50:58.542Z,72.76
2023-05-04T09:51:59.024Z,92.60
2023-05-04T09:52:58.583Z,2.97
2023-05-04T09:53:57.758Z,26.29
2023-05-04T09:54:57.698Z,3.32
2023-05-04T09:55:58.638Z,51.06
2023-05-04T09:56:58.796Z,40.45
2023-05-04T09:57:58.824Z,109.90
2023-05-04T09:58:57.876Z,178.15
2023-05-04T09:59:57.932Z,203.68
2023-05-04T10:00:58.965Z,129.32
2023-05-04T10:02:00.416Z,171.97
2023-05-04T10:02:59.154Z,172.69
2023-05-04T10:03:59.064Z,172.29
2023-05-04T10:04:59.077Z,124.85
2023-05-04T10:05:59.221Z,74.62
2023-05-04T10:06:59.045Z,91.74
2023-05-04T10:07:59.008Z,57.61
2023-05-04T10:08:58.022Z,104.74
2023-05-04T10:09:57.999Z,14.46
2023-05-04T10:10:58.012Z,44.83
2023-05-04T10:12:00.586Z,78.33
2023-05-04T10:12:58.989Z,58.84
2023-05-04T10:13:58.938Z,89.10
2023-05-04T10:14:58.938Z,121.79
2023-05-04T10:15:59.001Z,218.26
2023-05-04T10:16:58.936Z,190.35
2023-05-04T10:17:58.946Z,125.80
2023-05-04T10:18:57.930Z,88.12
2023-05-04T10:19:58.900Z,32.97
2023-05-04T10:20:58.898Z,109.54
2023-05-04T10:21:57.922Z,41.50
2023-05-04T10:22:57.902Z,71.47
2023-05-04T10:23:57.892Z,147.01
2023-05-04T10:24:58.887Z,96.89
2023-05-04T10:25:58.873Z,0.00
2023-05-04T10:26:58.838Z,17.30
2023-05-04T10:27:57.853Z,63.98
2023-05-04T10:28:58.853Z,72.39
2023-05-04T10:29:57.837Z,92.46
2023-05-04T10:30:58.832Z,51.14
2023-05-04T10:31:58.941Z,65.55
2023-05-04T10:32:58.899Z,18.81
2023-05-04T10:33:58.815Z,3.76
2023-05-04T10:34:57.795Z,45.19
2023-05-04T10:35:58.782Z,61.21
2023-05-04T10:36:58.784Z,64.04
2023-05-04T10:37:58.859Z,25.00
2023-05-04T10:38:58.788Z,56.99
2023-05-04T10:39:58.778Z,25.00
2023-05-04T10:40:57.776Z,45.74
2023-05-04T10:41:58.768Z,0.00
2023-05-04T10:42:59.035Z,0.00
2023-05-04T10:43:58.740Z,0.00
2023-05-04T10:44:58.746Z,136.04
2023-05-04T10:45:57.775Z,136.21
2023-05-04T10:46:59.827Z,96.62
2023-05-04T10:47:58.075Z,0.00
2023-05-04T10:48:58.729Z,0.00
2023-05-04T10:49:57.701Z,0.00
2023-05-04T10:50:58.695Z,0.00
2023-05-04T10:51:58.686Z,9.60
2023-05-04T10:52:59.504Z,0.00
2023-05-04T10:53:59.265Z,53.39
2023-05-04T10:54:58.929Z,16.36
2023-05-04T10:55:58.802Z,25.85
2023-05-04T10:56:58.869Z,67.60
2023-05-04T10:57:58.864Z,7.46
2023-05-04T10:58:57.886Z,3.71
2023-05-04T10:59:58.950Z,14.88
2023-05-04T11:00:58.022Z,105.47
2023-05-04T11:01:58.965Z,93.28
2023-05-04T11:02:58.118Z,79.28
2023-05-04T11:03:59.057Z,118.07
2023-05-04T11:04:58.042Z,151.34
2023-05-04T11:05:59.082Z,91.75
2023-05-04T11:06:59.117Z,52.73
2023-05-04T11:07:59.935Z,112.74
2023-05-04T11:08:58.167Z,113.24
2023-05-04T11:09:58.189Z,25.14
2023-05-04T11:10:59.224Z,0.00
2023-05-04T11:11:59.296Z,37.66
2023-05-04T11:12:59.352Z,44.95
2023-05-04T11:13:59.481Z,42.11
2023-05-04T11:14:59.436Z,40.18
2023-05-04T11:15:59.543Z,193.04
2023-05-04T11:16:59.471Z,211.91
2023-05-04T11:17:59.556Z,244.53
2023-05-04T11:18:59.555Z,191.30
2023-05-04T11:19:59.547Z,168.15
2023-05-04T11:20:59.596Z,219.84
2023-05-04T11:21:58.722Z,220.77
2023-05-04T11:22:58.719Z,260.89
2023-05-04T11:23:59.732Z,177.30
2023-05-04T11:24:58.746Z,89.52
2023-05-04T11:25:58.795Z,100.11
2023-05-04T11:26:58.827Z,115.43
2023-05-04T11:27:59.856Z,134.22
2023-05-04T11:28:59.878Z,203.73
2023-05-04T11:29:58.969Z,191.53
2023-05-04T11:30:59.981Z,187.73
2023-05-04T11:31:59.033Z,78.93
2023-05-04T11:32:59.135Z,71.68
2023-05-04T11:33:59.081Z,73.71
2023-05-04T11:34:59.135Z,77.57
2023-05-04T11:35:59.105Z,117.38
2023-05-04T11:37:00.214Z,81.85
2023-05-04T11:37:59.583Z,46.26
2023-05-04T11:39:00.254Z,113.28
2023-05-04T11:39:59.212Z,147.99
2023-05-04T11:41:00.240Z,118.70
2023-05-04T11:41:59.254Z,82.47
2023-05-04T11:42:59.203Z,191.64
2023-05-04T11:44:00.260Z,109.93
2023-05-04T11:45:00.287Z,178.86
2023-05-04T11:45:59.362Z,165.43
2023-05-04T11:46:59.342Z,22.37
2023-05-04T11:47:59.506Z,69.12
2023-05-04T11:48:59.367Z,102.78
2023-05-04T11:50:00.485Z,87.36
2023-05-04T11:51:00.515Z,49.72
2023-05-04T11:52:00.570Z,24.62
2023-05-04T11:52:59.655Z,44.53
2023-05-04T11:53:59.593Z,82.43
2023-05-04T11:55:00.610Z,103.78
2023-05-04T11:56:00.039Z,130.75
2023-05-04T11:57:00.864Z,45.01
2023-05-04T11:57:59.729Z,105.82
2023-05-04T11:58:59.779Z,99.73
2023-05-04T12:00:00.708Z,131.90
2023-05-04T12:01:00.775Z,41.33
2023-05-04T12:02:00.806Z,107.56
2023-05-04T12:03:00.984Z,112.78
2023-05-04T12:03:59.891Z,34.63
2023-05-04T12:04:59.896Z,0.00
2023-05-04T12:05:59.974Z,16.58
2023-05-04T12:07:01.740Z,42.76
2023-05-04T12:08:01.038Z,47.15
2023-05-04T12:09:01.013Z,61.12
2023-05-04T12:10:00.094Z,20.39
2023-05-04T12:11:00.068Z,31.17
2023-05-04T12:12:00.147Z,34.91
2023-05-04T12:13:01.232Z,49.95
2023-05-04T12:14:00.180Z,47.07
2023-05-04T12:15:01.231Z,51.92
2023-05-04T12:16:00.274Z,53.09
2023-05-04T12:17:01.282Z,12.87
2023-05-04T12:18:02.500Z,0.00
2023-05-04T12:19:00.260Z,16.30
2023-05-04T12:20:00.288Z,59.56
2023-05-04T12:21:02.803Z,23.07
2023-05-04T12:22:01.300Z,7.59
2023-05-04T12:23:00.234Z,23.89
2023-05-04T12:24:01.210Z,24.24
2023-05-04T12:25:00.285Z,0.00
2023-05-04T12:26:00.225Z,0.00
2023-05-04T12:27:00.205Z,0.00
2023-05-04T12:28:00.173Z,43.85
2023-05-04T12:29:00.149Z,2.25
2023-05-04T12:30:00.211Z,27.29
2023-05-04T12:31:00.200Z,27.68
2023-05-04T12:32:00.256Z,22.10
2023-05-04T12:33:00.298Z,30.55
2023-05-04T12:34:00.297Z,18.16
2023-05-04T12:35:00.212Z,8.28
2023-05-04T12:36:00.188Z,34.66
2023-05-04T12:37:00.151Z,10.30
2023-05-04T12:38:01.183Z,14.53
2023-05-04T12:39:00.162Z,34.44
2023-05-04T12:40:01.196Z,46.95
2023-05-04T12:41:01.172Z,25.00
2023-05-04T12:42:01.076Z,22.92
2023-05-04T12:43:01.153Z,25.00
2023-05-04T12:44:00.081Z,10.13
2023-05-04T12:45:01.092Z,17.97
2023-05-04T12:46:01.156Z,44.35
2023-05-04T12:47:01.122Z,66.19
2023-05-04T12:48:00.236Z,60.58
2023-05-04T12:49:00.025Z,44.29
2023-05-04T12:50:00.041Z,54.96
2023-05-04T12:51:00.081Z,43.29
2023-05-04T12:52:00.080Z,49.73
2023-05-04T12:53:00.014Z,26.88
2023-05-04T12:54:00.050Z,44.49
2023-05-04T12:55:01.108Z,33.77
2023-05-04T12:56:00.204Z,55.07
2023-05-04T12:57:00.113Z,30.45
2023-05-04T12:58:01.161Z,25.20
2023-05-04T12:59:00.134Z,32.29
2023-05-04T13:00:01.232Z,25.00
2023-05-04T13:01:00.297Z,27.65
2023-05-04T13:02:00.249Z,47.42
2023-05-04T13:03:00.494Z,42.57
2023-05-04T13:04:01.429Z,35.04
2023-05-04T13:05:00.378Z,40.26
2023-05-04T13:06:00.529Z,43.57
2023-05-04T13:07:01.445Z,41.63
2023-05-04T13:08:00.509Z,57.70
2023-05-04T13:09:00.498Z,62.38
2023-05-04T13:10:00.509Z,37.87
2023-05-04T13:11:01.612Z,47.84
2023-05-04T13:12:00.619Z,63.78
2023-05-04T13:13:01.773Z,58.91
2023-05-04T13:14:00.757Z,74.04
2023-05-04T13:15:00.733Z,75.86
2023-05-04T13:16:00.866Z,59.80
2023-05-04T13:17:01.898Z,34.45
2023-05-04T13:18:00.883Z,28.76
2023-05-04T13:19:00.904Z,50.22
2023-05-04T13:20:00.935Z,24.34
2023-05-04T13:21:00.957Z,45.45
2023-05-04T13:22:01.104Z,59.84
2023-05-04T13:23:01.232Z,58.72
2023-05-04T13:24:01.098Z,61.25
2023-05-04T13:25:01.141Z,64.47
2023-05-04T13:26:02.173Z,62.71
2023-05-04T13:27:02.306Z,62.30
2023-05-04T13:28:01.217Z,85.41
2023-05-04T13:29:01.257Z,76.36
2023-05-04T13:30:01.339Z,79.93
2023-05-04T13:31:01.378Z,86.26
2023-05-04T13:32:02.508Z,87.67
2023-05-04T13:33:07.702Z,93.59
2023-05-04T13:34:02.372Z,77.58
2023-05-04T13:35:01.316Z,68.47
2023-05-04T13:36:01.329Z,85.87
2023-05-04T13:37:02.402Z,92.14
2023-05-04T13:38:02.372Z,101.33
2023-05-04T13:39:01.364Z,85.06
2023-05-04T13:40:02.345Z,79.87
2023-05-04T13:41:01.274Z,93.48
2023-05-04T13:42:01.360Z,92.08
2023-05-04T13:43:01.341Z,91.54
2023-05-04T13:44:01.315Z,104.26
2023-05-04T13:45:01.299Z,109.70
2023-05-04T13:46:02.280Z,103.42
2023-05-04T13:47:01.378Z,106.27
2023-05-04T13:48:01.274Z,107.92
2023-05-04T13:49:02.229Z,116.07
2023-05-04T13:50:02.255Z,110.64
2023-05-04T13:51:01.285Z,111.35
2023-05-04T13:52:01.265Z,109.11
2023-05-04T13:53:01.217Z,106.08
2023-05-04T13:54:02.693Z,99.37
2023-05-04T13:55:01.255Z,97.32
2023-05-04T13:56:02.249Z,98.90
2023-05-04T13:57:01.249Z,114.00
2023-05-04T13:58:01.244Z,106.79
2023-05-04T13:59:02.230Z,84.50
2023-05-04T14:00:06.661Z,91.50
2023-05-04T14:01:02.183Z,92.09
2023-05-04T14:02:01.240Z,80.78
2023-05-04T14:03:01.293Z,75.92
2023-05-04T14:04:02.206Z,87.52
2023-05-04T14:05:01.202Z,95.45
2023-05-04T14:06:01.156Z,107.35
2023-05-04T14:07:02.089Z,110.49
2023-05-04T14:08:02.097Z,96.36
2023-05-04T14:09:02.216Z,106.22
2023-05-04T14:10:01.124Z,85.19
2023-05-04T14:11:01.074Z,84.72
2023-05-04T14:12:01.109Z,84.45
2023-05-04T14:13:01.109Z,94.05
2023-05-04T14:14:02.199Z,109.26
2023-05-04T14:15:01.281Z,113.30
2023-05-04T14:16:01.327Z,104.55
2023-05-04T14:17:01.245Z,94.68
2023-05-04T14:18:01.416Z,123.30
2023-05-04T14:19:01.307Z,114.74
2023-05-04T14:20:01.376Z,102.58
2023-05-04T14:21:02.354Z,101.98
2023-05-04T14:22:02.390Z,94.46
2023-05-04T14:23:01.339Z,90.33
2023-05-04T14:24:01.513Z,103.51
2023-05-04T14:25:02.509Z,147.64
2023-05-04T14:26:01.545Z,152.08
2023-05-04T14:27:02.565Z,158.53
2023-05-04T14:28:01.575Z,122.56
2023-05-04T14:29:01.559Z,112.92
2023-05-04T14:30:02.668Z,130.49
2023-05-04T14:31:01.721Z,132.93
2023-05-04T14:32:01.717Z,139.16
2023-05-04T14:33:02.828Z,131.11
2023-05-04T14:34:01.818Z,137.05
2023-05-04T14:35:01.806Z,150.04
2023-05-04T14:36:01.814Z,133.09
2023-05-04T14:37:01.920Z,109.15
2023-05-04T14:38:02.822Z,104.03
2023-05-04T14:39:02.835Z,114.61
2023-05-04T14:40:01.906Z,85.46
2023-05-04T14:41:03.027Z,89.56
2023-05-04T14:42:02.945Z,103.19
2023-05-04T14:43:02.969Z,114.35
2023-05-04T14:44:02.076Z,80.20
2023-05-04T14:45:01.959Z,74.83
2023-05-04T14:46:02.113Z,91.80
2023-05-04T14:47:02.051Z,100.76
2023-05-04T14:48:02.053Z,91.57
2023-05-04T14:49:02.101Z,104.95
2023-05-04T14:50:02.243Z,106.02
2023-05-04T14:51:02.165Z,100.39
2023-05-04T14:52:03.204Z,114.10
2023-05-04T14:53:02.236Z,133.86
2023-05-04T14:54:03.279Z,135.58
2023-05-04T14:55:02.297Z,112.33
2023-05-04T14:56:03.270Z,114.06
2023-05-04T14:57:02.291Z,125.75
2023-05-04T14:58:02.240Z,140.13
2023-05-04T14:59:03.378Z,133.41
2023-05-04T15:00:02.362Z,120.23
2023-05-04T15:01:02.388Z,134.69
2023-05-04T15:02:03.355Z,122.56
2023-05-04T15:03:02.510Z,145.29
2023-05-04T15:04:02.386Z,165.16
2023-05-04T15:05:02.407Z,192.79
2023-05-04T15:06:03.509Z,196.76
2023-05-04T15:07:03.572Z,201.14
2023-05-04T15:08:02.490Z,213.23
2023-05-04T15:09:02.584Z,211.85
2023-05-04T15:10:02.650Z,192.39
2023-05-04T15:11:02.669Z,184.46
2023-05-04T15:12:03.733Z,184.26
2023-05-04T15:13:02.700Z,198.78
2023-05-04T15:14:02.773Z,193.09
2023-05-04T15:15:02.684Z,173.74
2023-05-04T15:16:03.761Z,157.92
2023-05-04T15:17:03.789Z,194.48
2023-05-04T15:18:03.797Z,201.90
2023-05-04T15:19:02.793Z,197.78
2023-05-04T15:20:02.775Z,245.84
2023-05-04T15:21:03.828Z,230.61
2023-05-04T15:22:02.833Z,246.95
2023-05-04T15:23:03.871Z,225.14
2023-05-04T15:24:03.949Z,262.42
2023-05-04T15:25:03.899Z,297.25
2023-05-04T15:26:02.958Z,282.74
2023-05-04T15:27:03.935Z,227.19
2023-05-04T15:28:02.944Z,218.35
2023-05-04T15:29:03.059Z,220.26
2023-05-04T15:30:03.355Z,228.89
